createdAt,value
2019-05-25T00:02:15.765Z,2.00
2019-05-25T00:04:44.888Z,1.98
2019-05-25T00:07:13.674Z,2.50
2019-05-25T00:09:42.504Z,1.92
2019-05-25T00:12:11.322Z,2.27
2019-05-25T00:14:40.139Z,2.45
2019-05-25T00:17:08.942Z,2.40
2019-05-25T00:19:37.860Z,1.72
2019-05-25T00:22:06.708Z,1.80
2019-05-25T00:24:35.501Z,1.50
2019-05-25T00:27:04.347Z,2.80
2019-05-25T00:29:33.163Z,1.50
2019-05-25T00:32:01.970Z,1.87
2019-05-25T00:34:30.922Z,1.65
2019-05-25T00:36:59.739Z,3.05
2019-05-25T00:39:28.604Z,2.70
2019-05-25T00:41:57.455Z,2.08
2019-05-25T00:44:26.267Z,2.10
2019-05-25T00:46:55.078Z,3.00
2019-05-25T00:49:24.018Z,3.10
2019-05-25T00:51:52.842Z,2.02
2019-05-25T00:54:27.837Z,2.12
2019-05-25T00:56:52.177Z,1.77
2019-05-25T00:59:20.965Z,2.33
2019-05-25T01:01:49.813Z,1.90
2019-05-25T01:04:18.637Z,1.62
2019-05-25T01:06:47.748Z,2.33
2019-05-25T01:09:16.623Z,2.22
2019-05-25T01:11:45.493Z,2.08
2019-05-25T01:14:16.189Z,1.87
2019-05-25T01:16:45.246Z,2.55
2019-05-25T01:19:14.097Z,1.98
2019-05-25T01:21:46.437Z,2.52
2019-05-25T01:24:15.639Z,1.90
2019-05-25T01:26:46.064Z,2.50
2019-05-25T01:29:14.842Z,2.20
2019-05-25T01:31:43.774Z,2.08
2019-05-25T01:34:12.641Z,2.60
2019-05-25T01:36:41.425Z,2.00
2019-05-25T01:39:10.234Z,2.05
2019-05-25T01:41:39.049Z,1.90
2019-05-25T01:44:07.858Z,1.42
2019-05-25T01:46:36.685Z,2.20
2019-05-25T01:49:05.962Z,1.98
2019-05-25T01:51:34.775Z,1.75
2019-05-25T01:54:03.581Z,1.87
2019-05-25T01:56:32.421Z,2.58
2019-05-25T01:59:01.251Z,2.00
2019-05-25T02:01:30.075Z,1.60
2019-05-25T02:03:58.963Z,2.45
2019-05-25T02:06:27.771Z,2.17
2019-05-25T02:08:56.565Z,2.12
2019-05-25T02:11:25.467Z,2.33
2019-05-25T02:13:54.245Z,1.70
2019-05-25T02:16:23.035Z,2.60
2019-05-25T02:18:51.868Z,2.08
2019-05-25T02:21:20.688Z,2.05
2019-05-25T02:23:49.495Z,2.45
2019-05-25T02:26:18.326Z,1.67
2019-05-25T02:28:47.138Z,2.30
2019-05-25T02:31:16.004Z,2.20
2019-05-25T02:33:44.802Z,1.55
2019-05-25T02:36:13.602Z,1.70
2019-05-25T02:38:42.412Z,1.75
2019-05-25T02:41:11.302Z,1.82
2019-05-25T02:43:40.301Z,1.72
2019-05-25T02:46:09.104Z,1.62
2019-05-25T02:48:38.099Z,1.72
2019-05-25T02:51:06.899Z,1.40
2019-05-25T02:53:35.739Z,1.05
2019-05-25T02:56:04.576Z,1.50
2019-05-25T02:58:33.399Z,1.72
2019-05-25T03:01:02.516Z,1.55
2019-05-25T03:03:31.348Z,2.12
2019-05-25T03:06:01.069Z,2.52
2019-05-25T03:08:30.662Z,1.80
2019-05-25T03:10:59.791Z,2.12
2019-05-25T03:13:31.603Z,1.62
2019-05-25T03:16:01.097Z,2.15
2019-05-25T03:18:29.943Z,1.90
2019-05-25T03:20:58.817Z,1.67
2019-05-25T03:23:27.604Z,2.30
2019-05-25T03:25:56.419Z,1.90
2019-05-25T03:28:25.256Z,2.60
2019-05-25T03:30:54.045Z,1.90
2019-05-25T03:33:22.928Z,1.52
2019-05-25T03:35:51.743Z,1.30
2019-05-25T03:38:20.532Z,1.85
2019-05-25T03:40:49.357Z,1.50
2019-05-25T03:43:18.209Z,1.72
2019-05-25T03:45:47.029Z,1.77
2019-05-25T03:48:15.863Z,1.20
2019-05-25T03:50:44.698Z,1.50
2019-05-25T03:53:13.501Z,2.00
2019-05-25T03:55:42.298Z,2.00
2019-05-25T03:58:11.140Z,2.67
2019-05-25T04:00:40.033Z,2.22
2019-05-25T04:03:08.849Z,2.67
2019-05-25T04:05:37.723Z,1.52
2019-05-25T04:08:06.543Z,2.02
2019-05-25T04:10:38.657Z,1.80
2019-05-25T04:13:05.846Z,1.77
2019-05-25T04:15:34.653Z,1.40
2019-05-25T04:18:03.454Z,2.67
2019-05-25T04:20:32.289Z,2.00
2019-05-25T04:23:01.089Z,1.85
2019-05-25T04:25:29.894Z,1.87
2019-05-25T04:27:58.729Z,1.80
2019-05-25T04:30:27.523Z,1.82
2019-05-25T04:32:56.340Z,1.70
2019-05-25T04:35:25.164Z,1.92
2019-05-25T04:37:53.986Z,2.00
2019-05-25T04:40:23.275Z,1.52
2019-05-25T04:42:55.349Z,1.40
2019-05-25T04:45:24.249Z,2.40
2019-05-25T04:47:53.062Z,2.35
2019-05-25T04:50:22.011Z,2.08
2019-05-25T04:52:50.817Z,2.00
2019-05-25T04:55:19.765Z,1.92
2019-05-25T04:57:48.583Z,3.17
2019-05-25T05:00:17.817Z,1.87
2019-05-25T05:02:46.621Z,1.95
2019-05-25T05:05:15.473Z,1.80
2019-05-25T05:07:44.288Z,1.47
2019-05-25T05:10:13.386Z,1.90
2019-05-25T05:12:42.253Z,1.70
2019-05-25T05:15:11.409Z,2.25
2019-05-25T05:17:40.381Z,1.50
2019-05-25T05:20:09.710Z,2.83
2019-05-25T05:22:38.506Z,2.35
2019-05-25T05:25:09.309Z,1.60
2019-05-25T05:27:38.955Z,1.72
2019-05-25T05:30:09.564Z,1.70
2019-05-25T05:32:38.392Z,1.52
2019-05-25T05:35:08.762Z,1.90
2019-05-25T05:37:37.587Z,1.85
2019-05-25T05:40:08.142Z,1.62
2019-05-25T05:42:39.513Z,2.05
2019-05-25T05:45:09.598Z,2.33
2019-05-25T05:47:39.401Z,1.60
2019-05-25T05:50:09.765Z,1.87
2019-05-25T05:52:41.161Z,1.77
2019-05-25T05:55:11.773Z,2.30
2019-05-25T05:57:41.438Z,1.80
2019-05-25T06:00:11.554Z,1.98
2019-05-25T06:02:40.365Z,2.92
2019-05-25T06:05:09.472Z,2.62
2019-05-25T06:07:38.288Z,2.10
2019-05-25T06:10:08.315Z,2.37
2019-05-25T06:12:37.157Z,1.95
2019-05-25T06:15:07.362Z,2.37
2019-05-25T06:17:36.168Z,2.02
2019-05-25T06:20:07.207Z,2.00
2019-05-25T06:22:36.053Z,2.17
2019-05-25T06:25:07.221Z,2.50
2019-05-25T06:27:36.375Z,2.05
2019-05-25T06:30:06.979Z,2.20
2019-05-25T06:32:35.787Z,1.72
2019-05-25T06:35:06.647Z,2.08
2019-05-25T06:37:35.452Z,1.52
2019-05-25T06:40:06.206Z,2.27
2019-05-25T06:42:35.040Z,1.70
2019-05-25T06:45:04.752Z,2.77
2019-05-25T06:47:33.612Z,1.80
2019-05-25T06:50:02.481Z,1.98
2019-05-25T06:52:31.289Z,1.90
2019-05-25T06:55:00.119Z,3.22
2019-05-25T06:57:42.189Z,2.17
2019-05-25T06:59:59.434Z,2.12
2019-05-25T07:02:28.268Z,1.50
2019-05-25T07:04:57.075Z,2.20
2019-05-25T07:07:25.917Z,2.60
2019-05-25T07:09:54.847Z,1.95
2019-05-25T07:12:23.697Z,2.35
2019-05-25T07:14:52.488Z,2.00
2019-05-25T07:17:21.305Z,1.65
2019-05-25T07:19:50.125Z,2.70
2019-05-25T07:22:18.980Z,2.17
2019-05-25T07:24:47.818Z,1.72
2019-05-25T07:27:16.735Z,1.92
2019-05-25T07:29:45.576Z,2.47
2019-05-25T07:32:14.367Z,2.12
2019-05-25T07:34:43.193Z,1.92
2019-05-25T07:37:12.023Z,2.87
2019-05-25T07:39:40.857Z,1.75
2019-05-25T07:42:09.674Z,2.45
2019-05-25T07:44:38.512Z,1.80
2019-05-25T07:47:07.333Z,2.12
2019-05-25T07:49:36.147Z,2.50
2019-05-25T07:52:05.024Z,2.90
2019-05-25T07:54:33.873Z,1.55
2019-05-25T07:57:02.692Z,1.90
2019-05-25T07:59:31.555Z,1.95
2019-05-25T08:02:00.399Z,1.32
2019-05-25T08:04:29.215Z,1.77
2019-05-25T08:06:58.069Z,2.02
2019-05-25T08:09:26.888Z,2.45
2019-05-25T08:11:55.925Z,1.70
2019-05-25T08:14:24.845Z,3.30
2019-05-25T08:16:53.664Z,2.08
2019-05-25T08:19:24.214Z,1.80
2019-05-25T08:21:53.011Z,2.25
2019-05-25T08:24:21.860Z,2.08
2019-05-25T08:26:50.611Z,1.87
2019-05-25T08:29:19.607Z,2.60
2019-05-25T08:31:48.390Z,1.87
2019-05-25T08:34:17.202Z,1.72
2019-05-25T08:36:47.198Z,1.30
2019-05-25T08:39:16.148Z,1.70
2019-05-25T08:41:45.715Z,1.57
2019-05-25T08:44:14.810Z,1.40
2019-05-25T08:46:43.658Z,2.10
2019-05-25T08:49:12.452Z,1.65
2019-05-25T08:51:41.334Z,1.52
2019-05-25T08:54:10.102Z,1.75
2019-05-25T08:56:39.016Z,1.82
2019-05-25T08:59:08.249Z,1.60
2019-05-25T09:01:37.050Z,1.50
2019-05-25T09:04:05.871Z,1.65
2019-05-25T09:06:34.811Z,1.80
2019-05-25T09:09:04.906Z,1.50
2019-05-25T09:11:33.707Z,1.30
2019-05-25T09:14:02.669Z,2.25
2019-05-25T09:16:31.680Z,2.12
2019-05-25T09:19:00.550Z,1.87
2019-05-25T09:21:29.405Z,2.02
2019-05-25T09:23:58.268Z,1.80
2019-05-25T09:26:27.041Z,2.27
2019-05-25T09:29:04.511Z,1.95
2019-05-25T09:31:26.783Z,1.60
2019-05-25T09:33:55.684Z,2.20
2019-05-25T09:36:24.568Z,2.15
2019-05-25T09:38:53.398Z,2.35
2019-05-25T09:41:22.410Z,2.47
2019-05-25T09:43:51.382Z,2.10
2019-05-25T09:46:20.290Z,1.65
2019-05-25T09:48:52.126Z,1.37
2019-05-25T09:51:20.992Z,1.72
2019-05-25T09:53:50.121Z,2.33
2019-05-25T09:56:19.031Z,2.80
2019-05-25T09:58:48.065Z,2.10
2019-05-25T10:01:17.075Z,1.98
2019-05-25T10:03:48.367Z,2.20
2019-05-25T10:06:17.217Z,2.30
2019-05-25T10:08:46.046Z,2.08
2019-05-25T10:11:14.986Z,2.30
2019-05-25T10:13:43.979Z,2.22
2019-05-25T10:16:12.746Z,2.17
2019-05-25T10:18:41.561Z,1.90
2019-05-25T10:21:10.480Z,1.92
2019-05-25T10:23:39.313Z,1.90
2019-05-25T10:26:08.129Z,1.32
2019-05-25T10:28:36.996Z,1.50
2019-05-25T10:31:05.803Z,1.50
2019-05-25T10:33:34.680Z,2.27
2019-05-25T10:36:03.503Z,2.08
2019-05-25T10:38:32.334Z,2.22
2019-05-25T10:41:01.138Z,2.10
2019-05-25T10:43:29.988Z,2.10
2019-05-25T10:45:58.804Z,1.47
2019-05-25T10:48:27.611Z,1.82
2019-05-25T10:50:56.559Z,1.92
2019-05-25T10:53:25.395Z,2.00
2019-05-25T10:55:54.262Z,1.98
2019-05-25T10:58:23.104Z,1.75
2019-05-25T11:00:51.914Z,2.75
2019-05-25T11:03:20.731Z,3.22
2019-05-25T11:05:49.565Z,1.87
2019-05-25T11:08:18.435Z,1.70
2019-05-25T11:10:47.272Z,2.12
2019-05-25T11:13:16.077Z,2.02
2019-05-25T11:15:44.882Z,2.52
2019-05-25T11:18:13.721Z,1.98
2019-05-25T11:20:42.549Z,2.95
2019-05-25T11:23:11.363Z,2.62
2019-05-25T11:25:40.234Z,2.40
2019-05-25T11:28:09.042Z,2.83
2019-05-25T11:30:37.973Z,2.67
2019-05-25T11:33:06.926Z,2.37
2019-05-25T11:35:35.802Z,2.42
2019-05-25T11:38:04.637Z,1.80
2019-05-25T11:40:33.512Z,2.10
2019-05-25T11:43:03.766Z,2.40
2019-05-25T11:45:32.610Z,2.52
2019-05-25T11:48:01.424Z,2.33
2019-05-25T11:50:30.238Z,2.65
2019-05-25T11:52:59.040Z,2.50
2019-05-25T11:55:27.901Z,3.02
2019-05-25T11:57:56.738Z,2.67
2019-05-25T12:00:26.291Z,2.40
2019-05-25T12:02:55.116Z,2.75
2019-05-25T12:05:23.943Z,2.62
2019-05-25T12:07:52.775Z,2.40
2019-05-25T12:10:21.623Z,2.50
2019-05-25T12:12:50.437Z,3.17
2019-05-25T12:15:19.791Z,2.80
2019-05-25T12:17:48.780Z,2.35
2019-05-25T12:20:19.332Z,2.37
2019-05-25T12:22:48.193Z,1.70
2019-05-25T12:25:17.124Z,2.10
2019-05-25T12:27:49.069Z,2.55
2019-05-25T12:30:17.131Z,2.05
2019-05-25T12:32:46.079Z,2.50
2019-05-25T12:35:14.936Z,2.50
2019-05-25T12:37:43.725Z,2.20
2019-05-25T12:40:12.657Z,2.27
2019-05-25T12:42:41.524Z,3.05
2019-05-25T12:45:10.446Z,2.95
2019-05-25T12:47:39.294Z,2.00
2019-05-25T12:50:08.395Z,2.27
2019-05-25T12:52:37.206Z,1.72
2019-05-25T12:55:06.963Z,2.10
2019-05-25T12:57:36.142Z,2.58
2019-05-25T13:00:15.427Z,2.45
2019-05-25T13:02:39.230Z,2.95
2019-05-25T13:05:08.235Z,2.10
2019-05-25T13:07:37.052Z,2.17
2019-05-25T13:10:09.258Z,2.20
2019-05-25T13:12:38.059Z,2.50
2019-05-25T13:15:07.751Z,2.00
2019-05-25T13:17:36.608Z,2.98
2019-05-25T13:20:07.726Z,3.75
2019-05-25T13:22:36.529Z,2.75
2019-05-25T13:25:08.547Z,2.00
2019-05-25T13:27:37.316Z,2.80
2019-05-25T13:30:07.787Z,3.37
2019-05-25T13:32:36.600Z,2.50
2019-05-25T13:35:06.915Z,2.10
2019-05-25T13:37:35.830Z,2.30
2019-05-25T13:40:06.087Z,1.85
2019-05-25T13:42:34.930Z,2.60
2019-05-25T13:45:05.121Z,2.58
2019-05-25T13:47:33.964Z,2.87
2019-05-25T13:50:04.481Z,2.40
2019-05-25T13:52:36.674Z,2.22
2019-05-25T13:55:06.768Z,1.60
2019-05-25T13:57:35.583Z,3.15
2019-05-25T14:00:09.211Z,3.08
2019-05-25T14:02:38.074Z,2.15
2019-05-25T14:05:07.790Z,1.67
2019-05-25T14:07:36.618Z,2.37
2019-05-25T14:10:09.072Z,2.30
2019-05-25T14:12:38.151Z,2.67
2019-05-25T14:15:08.624Z,2.47
2019-05-25T14:17:37.904Z,2.27
2019-05-25T14:20:07.635Z,2.22
2019-05-25T14:22:36.609Z,1.85
2019-05-25T14:25:09.381Z,2.08
2019-05-25T14:27:38.277Z,2.60
2019-05-25T14:30:07.946Z,2.10
2019-05-25T14:32:36.792Z,3.27
2019-05-25T14:35:06.383Z,2.50
2019-05-25T14:37:35.596Z,2.50
2019-05-25T14:40:06.742Z,2.25
2019-05-25T14:42:35.563Z,2.98
2019-05-25T14:45:07.184Z,3.20
2019-05-25T14:47:36.069Z,3.10
2019-05-25T14:50:06.979Z,3.40
2019-05-25T14:52:35.813Z,4.03
2019-05-25T14:55:08.593Z,3.02
2019-05-25T14:57:37.399Z,2.30
2019-05-25T15:00:13.024Z,3.22
2019-05-25T15:02:42.662Z,3.58
2019-05-25T15:05:11.888Z,3.62
2019-05-25T15:07:40.722Z,3.95
2019-05-25T15:10:10.293Z,3.10
2019-05-25T15:12:39.074Z,3.90
2019-05-25T15:15:09.401Z,4.10
2019-05-25T15:17:38.623Z,4.83
2019-05-25T15:20:08.446Z,3.35
2019-05-25T15:22:37.296Z,4.20
2019-05-25T15:25:07.947Z,4.22
2019-05-25T15:27:36.767Z,3.83
2019-05-25T15:30:07.015Z,4.22
2019-05-25T15:32:35.876Z,4.65
2019-05-25T15:35:07.039Z,4.53
2019-05-25T15:37:35.872Z,3.98
2019-05-25T15:40:10.005Z,3.55
2019-05-25T15:42:38.790Z,3.05
2019-05-25T15:45:07.765Z,4.78
2019-05-25T15:47:36.596Z,3.62
2019-05-25T15:50:10.689Z,5.05
2019-05-25T15:52:39.583Z,5.30
2019-05-25T15:55:08.924Z,3.98
2019-05-25T15:57:37.828Z,4.35
2019-05-25T16:00:14.728Z,3.92
2019-05-25T16:02:43.728Z,5.25
2019-05-25T16:05:14.256Z,5.12
2019-05-25T16:07:45.906Z,4.62
2019-05-25T16:10:14.899Z,4.65
2019-05-25T16:12:43.721Z,4.30
2019-05-25T16:15:12.701Z,4.03
2019-05-25T16:17:41.531Z,5.28
2019-05-25T16:20:10.658Z,5.30
2019-05-25T16:22:39.508Z,5.58
2019-05-25T16:25:08.366Z,5.53
2019-05-25T16:27:37.241Z,5.53
2019-05-25T16:30:07.565Z,4.75
2019-05-25T16:33:07.197Z,2.92
2019-05-25T16:35:07.235Z,3.00
2019-05-25T16:37:36.386Z,3.35
2019-05-25T16:40:08.656Z,3.70
2019-05-25T16:42:37.425Z,3.20
2019-05-25T16:45:07.275Z,2.83
2019-05-25T16:47:36.435Z,4.22
2019-05-25T16:50:08.931Z,4.42
2019-05-25T16:52:37.851Z,3.27
2019-05-25T16:55:07.735Z,3.40
2019-05-25T16:57:36.575Z,3.22
2019-05-25T17:00:07.310Z,3.30
2019-05-25T17:02:36.132Z,2.95
2019-05-25T17:05:05.969Z,3.50
2019-05-25T17:07:34.867Z,3.35
2019-05-25T17:10:05.181Z,3.50
2019-05-25T17:12:34.002Z,3.55
2019-05-25T17:15:02.861Z,3.50
2019-05-25T17:17:31.853Z,3.40
2019-05-25T17:20:00.719Z,3.47
2019-05-25T17:22:29.611Z,3.80
2019-05-25T17:24:59.502Z,3.80
2019-05-25T17:27:28.441Z,3.98
2019-05-25T17:29:57.290Z,3.95
2019-05-25T17:32:26.154Z,4.67
2019-05-25T17:34:55.015Z,4.58
2019-05-25T17:37:23.904Z,4.35
2019-05-25T17:39:52.736Z,3.17
2019-05-25T17:42:21.559Z,4.25
2019-05-25T17:44:50.385Z,3.62
2019-05-25T17:47:19.215Z,4.22
2019-05-25T17:49:48.105Z,2.85
2019-05-25T17:52:16.922Z,4.42
2019-05-25T17:54:45.744Z,4.75
2019-05-25T17:57:14.552Z,3.35
2019-05-25T17:59:43.418Z,3.58
2019-05-25T18:02:12.275Z,4.62
2019-05-25T18:04:41.103Z,3.30
2019-05-25T18:07:11.498Z,3.72
2019-05-25T18:09:42.416Z,3.60
2019-05-25T18:12:11.630Z,3.55
2019-05-25T18:14:40.540Z,3.25
2019-05-25T18:17:09.345Z,3.08
2019-05-25T18:19:38.302Z,3.00
2019-05-25T18:22:07.149Z,3.85
2019-05-25T18:24:36.030Z,3.80
2019-05-25T18:27:04.791Z,3.58
2019-05-25T18:29:33.715Z,3.22
2019-05-25T18:32:02.613Z,3.45
2019-05-25T18:34:31.466Z,4.50
2019-05-25T18:37:02.248Z,3.15
2019-05-25T18:39:33.573Z,4.17
2019-05-25T18:42:02.717Z,3.20
2019-05-25T18:44:32.015Z,3.22
2019-05-25T18:47:00.967Z,3.08
2019-05-25T18:49:33.336Z,2.55
2019-05-25T18:52:02.519Z,3.67
2019-05-25T18:54:31.457Z,3.08
2019-05-25T18:57:04.491Z,3.42
2019-05-25T18:59:31.171Z,3.47
2019-05-25T19:02:00.028Z,2.67
2019-05-25T19:04:45.591Z,3.17
2019-05-25T19:07:02.414Z,3.00
2019-05-25T19:09:31.343Z,2.20
2019-05-25T19:12:01.056Z,2.72
2019-05-25T19:14:29.949Z,2.30
2019-05-25T19:16:59.305Z,1.90
2019-05-25T19:19:31.376Z,3.17
2019-05-25T19:22:04.371Z,2.72
2019-05-25T19:24:34.949Z,3.17
2019-05-25T19:27:03.895Z,3.30
2019-05-25T19:29:34.203Z,3.25
2019-05-25T19:32:03.035Z,2.05
2019-05-25T19:34:33.737Z,3.52
2019-05-25T19:37:03.769Z,2.72
2019-05-25T19:39:32.775Z,3.00
2019-05-25T19:42:01.629Z,2.52
2019-05-25T19:44:30.430Z,2.75
2019-05-25T19:47:00.968Z,3.52
2019-05-25T19:49:29.819Z,2.58
2019-05-25T19:51:59.552Z,2.50
2019-05-25T19:54:28.350Z,2.35
2019-05-25T19:56:58.507Z,2.02
2019-05-25T19:59:28.475Z,1.50
2019-05-25T20:01:59.601Z,2.60
2019-05-25T20:04:28.392Z,1.87
2019-05-25T20:06:57.252Z,2.02
2019-05-25T20:09:26.087Z,2.45
2019-05-25T20:11:55.239Z,1.65
2019-05-25T20:14:26.301Z,1.92
2019-05-25T20:16:55.039Z,1.30
2019-05-25T20:19:24.075Z,3.70
2019-05-25T20:21:55.627Z,2.40
2019-05-25T20:24:25.226Z,2.20
2019-05-25T20:26:54.564Z,2.80
2019-05-25T20:29:24.088Z,2.58
2019-05-25T20:31:53.327Z,1.87
2019-05-25T20:34:22.166Z,2.05
2019-05-25T20:36:51.537Z,1.80
2019-05-25T20:39:21.196Z,2.08
2019-05-25T20:41:50.106Z,2.10
2019-05-25T20:44:23.784Z,2.20
2019-05-25T20:46:52.860Z,2.45
2019-05-25T20:49:21.714Z,2.25
2019-05-25T20:51:50.814Z,2.22
2019-05-25T20:54:19.724Z,2.42
2019-05-25T20:56:48.763Z,3.27
2019-05-25T20:59:17.979Z,2.22
2019-05-25T21:01:47.400Z,3.05
2019-05-25T21:04:21.773Z,2.33
2019-05-25T21:06:50.653Z,2.17
2019-05-25T21:09:19.780Z,2.22
2019-05-25T21:11:55.595Z,2.20
2019-05-25T21:14:22.187Z,3.98
2019-05-25T21:16:54.337Z,2.20
2019-05-25T21:19:23.416Z,2.22
2019-05-25T21:21:52.808Z,3.35
2019-05-25T21:24:22.426Z,1.82
2019-05-25T21:26:51.185Z,2.30
2019-05-25T21:29:20.113Z,2.33
2019-05-25T21:31:51.685Z,3.12
2019-05-25T21:34:20.860Z,1.70
2019-05-25T21:36:51.435Z,3.12
2019-05-25T21:39:20.683Z,2.60
2019-05-25T21:41:49.930Z,2.45
2019-05-25T21:44:20.856Z,2.98
2019-05-25T21:46:50.889Z,2.72
2019-05-25T21:49:20.719Z,2.30
2019-05-25T21:51:51.071Z,2.58
2019-05-25T21:54:21.544Z,1.87
2019-05-25T21:56:52.359Z,1.77
2019-05-25T21:59:21.329Z,2.90
2019-05-25T22:01:50.402Z,1.60
2019-05-25T22:04:19.546Z,2.98
2019-05-25T22:06:48.663Z,2.60
2019-05-25T22:09:17.640Z,2.08
2019-05-25T22:11:46.641Z,2.47
2019-05-25T22:14:15.617Z,2.90
2019-05-25T22:16:47.432Z,3.30
2019-05-25T22:19:16.477Z,2.40
2019-05-25T22:21:46.855Z,2.15
2019-05-25T22:24:15.663Z,2.05
2019-05-25T22:26:44.475Z,2.50
2019-05-25T22:29:13.275Z,2.30
2019-05-25T22:31:42.128Z,2.33
2019-05-25T22:34:10.880Z,2.05
2019-05-25T22:36:41.154Z,2.95
2019-05-25T22:39:10.262Z,2.30
2019-05-25T22:41:39.061Z,2.15
2019-05-25T22:44:08.214Z,2.00
2019-05-25T22:46:37.026Z,1.82
2019-05-25T22:49:05.907Z,2.67
2019-05-25T22:51:34.758Z,1.52
2019-05-25T22:54:03.567Z,2.60
2019-05-25T22:56:32.473Z,2.33
2019-05-25T22:59:01.303Z,3.05
2019-05-25T23:01:30.192Z,2.62
2019-05-25T23:03:58.997Z,2.00
2019-05-25T23:06:27.958Z,1.70
2019-05-25T23:08:56.750Z,1.70
2019-05-25T23:11:25.626Z,1.80
2019-05-25T23:13:54.583Z,2.25
2019-05-25T23:16:23.400Z,1.87
2019-05-25T23:18:54.380Z,2.10
2019-05-25T23:21:24.768Z,3.02
2019-05-25T23:23:55.229Z,2.70
2019-05-25T23:26:24.087Z,3.05
2019-05-25T23:28:53.353Z,2.83
2019-05-25T23:31:23.647Z,2.55
2019-05-25T23:33:53.915Z,2.65
2019-05-25T23:36:22.763Z,2.72
2019-05-25T23:38:54.339Z,2.27
2019-05-25T23:41:23.178Z,2.90
2019-05-25T23:43:52.030Z,2.12
2019-05-25T23:46:20.860Z,1.95
2019-05-25T23:48:49.637Z,1.70
2019-05-25T23:51:18.469Z,1.67
2019-05-25T23:53:47.321Z,2.02
2019-05-25T23:56:16.131Z,1.72
2019-05-25T23:58:44.946Z,2.15
